Time;durP1;ratioP1;P1;durP2;ratioP2;P2;SDS_P1;SDS_P2;PMS_P1;PMS_P2;Temp;Humidity;BMP_temperature;BMP_pressure;BME280_temperature;BME280_humidity;BME280_pressure;Samples;Min_cycle;Max_cycle;Signal;HPM_P1;HPM_P2
2022/07/07 00:02:24;;;;;;;9.20;4.10;;;14.60;99.90;;;;;;5012872;28;20560;-60
2022/07/07 00:04:51;;;;;;;6.60;3.80;;;14.60;99.90;;;;;;5013285;28;20481;-60
2022/07/07 00:07:19;;;;;;;4.93;4.03;;;14.50;99.90;;;;;;5012756;28;21003;-58
2022/07/07 00:09:46;;;;;;;4.83;4.40;;;14.50;99.90;;;;;;5013074;28;20458;-60
2022/07/07 00:12:14;;;;;;;4.83;3.80;;;14.50;99.90;;;;;;5013298;28;20786;-60
2022/07/07 00:14:43;;;;;;;7.17;4.20;;;14.50;99.90;;;;;;5012765;28;20481;-60
2022/07/07 00:17:10;;;;;;;5.60;4.53;;;14.50;99.90;;;;;;5012653;28;20869;-60
2022/07/07 00:19:37;;;;;;;5.67;4.80;;;14.50;99.90;;;;;;5013403;28;20853;-60
2022/07/07 00:22:05;;;;;;;7.03;4.77;;;14.50;99.90;;;;;;5013098;28;20941;-61
2022/07/07 00:24:33;;;;;;;11.60;5.00;;;14.50;99.90;;;;;;5014591;28;21039;-60
2022/07/07 00:27:00;;;;;;;7.53;5.27;;;14.50;99.90;;;;;;5018834;28;20446;-60
2022/07/07 00:29:28;;;;;;;9.10;5.60;;;14.50;99.90;;;;;;5019096;28;20454;-60
2022/07/07 00:31:56;;;;;;;7.83;6.00;;;14.60;99.90;;;;;;5017375;28;20485;-60
2022/07/07 00:34:24;;;;;;;9.20;6.63;;;14.60;99.90;;;;;;5016771;28;20599;-61
2022/07/07 00:36:51;;;;;;;8.70;6.60;;;14.60;99.90;;;;;;5016585;28;21037;-60
2022/07/07 00:39:18;;;;;;;9.13;6.77;;;14.60;99.90;;;;;;5017276;28;20826;-60
2022/07/07 00:41:46;;;;;;;7.47;6.33;;;14.60;99.90;;;;;;5016531;28;20462;-60
2022/07/07 00:44:14;;;;;;;7.07;6.37;;;14.60;99.90;;;;;;5016523;28;20473;-60
2022/07/07 00:46:45;;;;;;;7.33;6.20;;;14.70;99.90;;;;;;5016511;28;20524;-60
2022/07/07 00:49:14;;;;;;;8.33;6.70;;;14.70;99.90;;;;;;5016607;28;20477;-60
2022/07/07 00:51:42;;;;;;;7.80;6.47;;;14.70;99.90;;;;;;5016892;28;20512;-60
2022/07/07 00:54:11;;;;;;;8.37;7.37;;;14.70;99.90;;;;;;5016405;28;20549;-60
2022/07/07 00:56:39;;;;;;;10.90;7.77;;;14.70;99.90;;;;;;5016355;28;20532;-60
2022/07/07 00:59:07;;;;;;;9.27;6.80;;;14.60;99.90;;;;;;5016629;28;20496;-60
2022/07/07 01:01:37;;;;;;;7.53;6.37;;;14.60;99.90;;;;;;5016466;28;20521;-60
2022/07/07 01:04:06;;;;;;;9.80;6.70;;;14.50;99.90;;;;;;5017234;28;20842;-60
2022/07/07 01:06:35;;;;;;;9.43;7.60;;;14.50;99.90;;;;;;5018006;28;21019;-60
2022/07/07 01:09:03;;;;;;;10.40;7.43;;;14.50;99.90;;;;;;5017457;28;20504;-60
2022/07/07 01:11:49;;;;;;;9.20;8.07;;;14.50;99.90;;;;;;5017064;28;20445;-60
2022/07/07 01:14:16;;;;;;;7.83;6.90;;;14.50;99.90;;;;;;5002027;28;20523;-60
2022/07/07 01:16:45;;;;;;;10.43;8.30;;;14.50;99.90;;;;;;5016432;28;20512;-60
2022/07/07 01:19:12;;;;;;;11.67;8.57;;;14.50;99.90;;;;;;4999854;28;20442;-60
2022/07/07 01:21:48;;;;;;;8.60;7.80;;;14.40;99.90;;;;;;5016115;28;20962;-59
2022/07/07 01:24:16;;;;;;;10.00;9.03;;;14.40;99.90;;;;;;5013461;28;20461;-59
2022/07/07 01:26:43;;;;;;;11.57;7.80;;;14.40;99.90;;;;;;5015771;28;20442;-60
2022/07/07 01:29:11;;;;;;;9.03;8.13;;;14.40;99.90;;;;;;5015953;28;20441;-61
2022/07/07 01:31:38;;;;;;;8.50;7.23;;;14.40;99.90;;;;;;5015818;28;20541;-61
2022/07/07 01:34:06;;;;;;;9.30;7.77;;;14.40;99.90;;;;;;5015151;28;20527;-61
2022/07/07 01:36:33;;;;;;;9.37;7.70;;;14.40;99.90;;;;;;5015103;28;20509;-61
2022/07/07 01:39:00;;;;;;;10.83;8.50;;;14.40;99.90;;;;;;5015514;28;20501;-60
2022/07/07 01:41:29;;;;;;;11.33;8.80;;;14.40;99.90;;;;;;5015625;28;20998;-60
2022/07/07 01:43:56;;;;;;;11.00;8.53;;;14.50;99.90;;;;;;5015161;28;20547;-60
2022/07/07 01:46:23;;;;;;;9.97;7.83;;;14.50;99.90;;;;;;5015620;28;20537;-59
2022/07/07 01:48:50;;;;;;;9.93;8.30;;;14.50;99.90;;;;;;5015679;28;20450;-60
2022/07/07 01:51:18;;;;;;;11.50;7.87;;;14.50;99.90;;;;;;5014980;28;20545;-60
2022/07/07 01:53:45;;;;;;;8.47;7.57;;;14.40;99.90;;;;;;5015155;28;20478;-60
2022/07/07 01:56:12;;;;;;;9.03;6.80;;;14.50;99.90;;;;;;5015011;28;20992;-60
2022/07/07 01:58:41;;;;;;;23.67;8.53;;;14.50;99.90;;;;;;5015301;28;20450;-60
2022/07/07 02:01:08;;;;;;;8.80;7.30;;;14.50;99.90;;;;;;5015533;28;20879;-60
2022/07/07 02:03:36;;;;;;;7.20;6.50;;;14.60;99.90;;;;;;5015053;28;20557;-60
2022/07/07 02:06:03;;;;;;;7.70;7.03;;;14.60;99.90;;;;;;5015481;28;20453;-60
2022/07/07 02:08:31;;;;;;;6.47;5.83;;;14.60;99.90;;;;;;5015355;28;20554;-60
2022/07/07 02:11:13;;;;;;;6.90;6.30;;;14.60;99.90;;;;;;5015401;28;20953;-60
2022/07/07 02:13:43;;;;;;;6.83;6.23;;;14.60;99.90;;;;;;5015008;28;20498;-61
2022/07/07 02:16:10;;;;;;;6.50;5.90;;;14.60;99.90;;;;;;5014622;28;20528;-61
2022/07/07 02:18:39;;;;;;;7.73;6.10;;;14.60;99.90;;;;;;5014635;28;20533;-60
2022/07/07 02:21:07;;;;;;;7.93;6.40;;;14.60;99.90;;;;;;5014809;28;20520;-60
2022/07/07 02:23:35;;;;;;;7.10;5.83;;;14.60;99.90;;;;;;5014787;28;20557;-60
2022/07/07 02:26:02;;;;;;;7.60;6.90;;;14.60;99.90;;;;;;5014582;28;20437;-61
2022/07/07 02:28:30;;;;;;;6.73;6.13;;;14.60;99.90;;;;;;5014322;28;20512;-60
2022/07/07 02:30:59;;;;;;;7.57;6.87;;;14.70;99.90;;;;;;5014479;28;20474;-60
2022/07/07 02:33:27;;;;;;;8.60;6.90;;;14.70;99.90;;;;;;5014529;28;20512;-60
2022/07/07 02:35:55;;;;;;;7.67;6.97;;;14.70;99.90;;;;;;5014695;28;20478;-60
2022/07/07 02:38:23;;;;;;;9.13;7.50;;;14.60;99.90;;;;;;5014130;28;20465;-60
2022/07/07 02:40:50;;;;;;;7.67;6.83;;;14.60;99.90;;;;;;5014427;28;20446;-61
2022/07/07 02:43:18;;;;;;;7.60;6.90;;;14.60;99.90;;;;;;5014471;28;20482;-60
2022/07/07 02:45:47;;;;;;;8.23;7.53;;;14.60;99.90;;;;;;5014396;28;20504;-60
2022/07/07 02:48:17;;;;;;;8.63;7.73;;;14.60;99.90;;;;;;5013666;28;20446;-60
2022/07/07 02:50:45;;;;;;;8.27;7.47;;;14.70;99.90;;;;;;5013757;28;20446;-60
2022/07/07 02:53:14;;;;;;;9.30;8.40;;;14.70;99.90;;;;;;5014204;28;20548;-61
2022/07/07 02:55:42;;;;;;;8.97;8.17;;;14.70;99.90;;;;;;5014091;28;20481;-61
2022/07/07 02:58:11;;;;;;;10.70;8.70;;;14.70;99.90;;;;;;5014297;28;20858;-60
2022/07/07 03:00:40;;;;;;;11.13;8.47;;;14.70;99.90;;;;;;5014106;28;20457;-61
2022/07/07 03:03:09;;;;;;;10.17;9.20;;;14.70;99.90;;;;;;5014548;28;20462;-60
2022/07/07 03:05:38;;;;;;;10.17;9.17;;;14.80;99.90;;;;;;5013808;28;20446;-61
2022/07/07 03:08:06;;;;;;;11.23;9.70;;;14.80;99.90;;;;;;5014074;28;20529;-60
2022/07/07 03:10:33;;;;;;;11.20;10.10;;;14.80;99.90;;;;;;5013829;28;20450;-60
2022/07/07 03:13:00;;;;;;;11.10;9.37;;;14.80;99.90;;;;;;5013816;28;20469;-60
2022/07/07 03:15:27;;;;;;;12.20;10.67;;;14.90;99.90;;;;;;5014042;28;20523;-60
2022/07/07 03:17:55;;;;;;;10.50;9.50;;;14.90;99.90;;;;;;5013709;28;20540;-61
2022/07/07 03:20:23;;;;;;;11.03;9.93;;;14.90;99.90;;;;;;5013643;28;20589;-61
2022/07/07 03:22:52;;;;;;;9.57;8.60;;;15.00;99.90;;;;;;4994428;28;20881;-60
2022/07/07 03:25:19;;;;;;;10.13;9.23;;;15.00;99.90;;;;;;5009661;28;20446;-60
2022/07/07 03:27:46;;;;;;;11.20;9.70;;;15.00;99.90;;;;;;5025736;28;20790;-60
2022/07/07 03:30:14;;;;;;;12.80;10.80;;;15.00;99.90;;;;;;5026776;28;20446;-60
2022/07/07 03:32:41;;;;;;;10.10;9.10;;;15.00;99.90;;;;;;5026582;28;20496;-60
2022/07/07 03:35:09;;;;;;;12.47;10.30;;;15.00;99.90;;;;;;5019810;28;20496;-60
2022/07/07 03:37:37;;;;;;;10.93;9.83;;;15.00;99.90;;;;;;5016799;28;20499;-60
2022/07/07 03:40:07;;;;;;;11.60;10.60;;;15.00;99.90;;;;;;5015101;28;20450;-60
2022/07/07 03:42:36;;;;;;;11.43;10.10;;;15.10;99.90;;;;;;5016303;28;20490;-60
2022/07/07 03:45:04;;;;;;;11.20;10.20;;;15.10;99.90;;;;;;5014541;28;20480;-61
2022/07/07 03:47:32;;;;;;;11.03;9.83;;;15.10;99.90;;;;;;5013750;28;20458;-60
2022/07/07 03:49:59;;;;;;;11.10;9.50;;;15.10;99.90;;;;;;5014471;28;20843;-61
2022/07/07 03:52:26;;;;;;;14.40;10.17;;;15.10;99.90;;;;;;5014698;28;20454;-60
2022/07/07 03:54:53;;;;;;;11.30;10.20;;;15.10;99.90;;;;;;5014241;28;20536;-60
2022/07/07 03:57:22;;;;;;;12.13;10.30;;;15.10;99.90;;;;;;5015836;28;20486;-60
2022/07/07 03:59:49;;;;;;;15.20;12.10;;;15.10;99.90;;;;;;5013392;28;20454;-61
2022/07/07 04:02:17;;;;;;;11.43;10.40;;;15.10;99.90;;;;;;5013747;28;20450;-61
2022/07/07 04:04:44;;;;;;;11.63;10.50;;;15.10;99.90;;;;;;5013666;28;20508;-61
2022/07/07 04:10:00;;;;;;;12.00;10.80;;;15.10;99.90;;;;;;5091124;27;20611;-60
2022/07/07 04:12:27;;;;;;;12.47;11.37;;;15.10;99.90;;;;;;5091096;28;20446;-60
2022/07/07 04:14:55;;;;;;;12.90;11.60;;;15.10;99.90;;;;;;5078577;28;20447;-61
2022/07/07 04:17:22;;;;;;;14.47;13.00;;;15.10;99.90;;;;;;5070704;28;20447;-60
2022/07/07 04:19:50;;;;;;;14.87;13.27;;;15.10;99.90;;;;;;5071644;28;20494;-61
2022/07/07 04:22:17;;;;;;;14.90;13.50;;;15.10;99.90;;;;;;5087090;28;20483;-61
2022/07/07 04:24:44;;;;;;;14.63;13.33;;;15.00;99.90;;;;;;5087904;28;20500;-60
2022/07/07 04:27:13;;;;;;;16.03;14.33;;;15.00;99.90;;;;;;5070155;28;20481;-60
2022/07/07 04:29:40;;;;;;;15.30;13.80;;;15.00;99.90;;;;;;5070954;28;20507;-61
2022/07/07 04:32:08;;;;;;;15.13;13.63;;;15.00;99.90;;;;;;5050049;28;20480;-61
2022/07/07 04:34:36;;;;;;;14.83;13.33;;;15.00;99.90;;;;;;5050225;28;20455;-61
2022/07/07 04:37:03;;;;;;;14.00;12.77;;;15.00;99.90;;;;;;5057815;28;20539;-62
2022/07/07 04:39:30;;;;;;;15.70;14.13;;;15.00;99.90;;;;;;5071862;28;20989;-61
2022/07/07 04:41:58;;;;;;;16.40;14.70;;;15.00;99.90;;;;;;5071450;28;20444;-60
2022/07/07 04:44:26;;;;;;;16.43;13.00;;;15.00;99.90;;;;;;5070024;28;20468;-59
2022/07/07 04:46:54;;;;;;;13.70;12.37;;;15.00;99.90;;;;;;5070422;28;20853;-60
2022/07/07 04:49:21;;;;;;;14.23;12.80;;;15.10;99.90;;;;;;5070272;28;20471;-58
2022/07/07 04:51:49;;;;;;;15.67;13.40;;;15.10;99.90;;;;;;5075166;28;20505;-59
2022/07/07 04:54:16;;;;;;;15.07;13.50;;;15.10;99.90;;;;;;5077288;28;20463;-60
2022/07/07 04:56:44;;;;;;;13.77;12.47;;;15.10;99.90;;;;;;5083788;28;20469;-60
2022/07/07 04:59:11;;;;;;;14.33;13.03;;;15.10;99.90;;;;;;5093076;28;20513;-60
2022/07/07 05:01:40;;;;;;;13.77;12.43;;;15.10;99.90;;;;;;5091333;28;20466;-60
2022/07/07 05:04:07;;;;;;;13.30;12.03;;;15.10;99.90;;;;;;5085662;28;20532;-59
2022/07/07 05:06:34;;;;;;;15.10;13.50;;;15.20;99.90;;;;;;5069157;28;20435;-60
2022/07/07 05:09:02;;;;;;;13.60;12.30;;;15.20;99.90;;;;;;5081516;28;20474;-61
2022/07/07 05:11:29;;;;;;;14.60;13.20;;;15.20;99.90;;;;;;5089532;28;20503;-60
2022/07/07 05:13:57;;;;;;;15.40;12.60;;;15.20;99.90;;;;;;5085553;28;20475;-59
2022/07/07 05:16:24;;;;;;;12.27;11.07;;;15.20;99.90;;;;;;5069025;28;20871;-58
2022/07/07 05:18:53;;;;;;;12.13;11.13;;;15.20;99.90;;;;;;5069242;28;20439;-58
2022/07/07 05:21:20;;;;;;;11.17;10.17;;;15.30;99.90;;;;;;5073583;28;20447;-59
2022/07/07 05:23:48;;;;;;;14.67;12.30;;;15.30;99.90;;;;;;5075723;28;20470;-58
2022/07/07 05:26:15;;;;;;;10.30;9.40;;;15.40;99.90;;;;;;5075790;28;20447;-59
2022/07/07 05:28:43;;;;;;;11.93;10.83;;;15.40;99.90;;;;;;5076107;28;20861;-58
2022/07/07 05:31:11;;;;;;;11.27;10.33;;;15.50;99.90;;;;;;5076019;28;20935;-58
2022/07/07 05:33:38;;;;;;;8.97;8.17;;;15.50;99.90;;;;;;5056631;28;20893;-59
2022/07/07 05:36:09;;;;;;;9.77;8.87;;;15.50;99.90;;;;;;5055859;28;20459;-59
2022/07/07 05:38:36;;;;;;;7.97;7.13;;;15.50;99.90;;;;;;5056939;28;20424;-59
2022/07/07 05:41:05;;;;;;;8.53;7.83;;;15.50;99.90;;;;;;5055874;28;20448;-59
2022/07/07 05:43:32;;;;;;;8.17;7.47;;;15.50;99.90;;;;;;5055423;28;20476;-58
2022/07/07 05:46:00;;;;;;;7.80;6.53;;;15.60;99.90;;;;;;5055488;28;20440;-60
2022/07/07 05:48:27;;;;;;;7.10;6.57;;;15.60;99.90;;;;;;5055301;28;21032;-59
2022/07/07 05:50:55;;;;;;;6.37;5.83;;;15.60;99.90;;;;;;5055560;28;20444;-59
2022/07/07 05:53:24;;;;;;;7.83;7.23;;;15.50;99.90;;;;;;5055707;28;20811;-58
2022/07/07 05:55:52;;;;;;;6.70;6.10;;;15.50;99.90;;;;;;5055367;28;20450;-58
2022/07/07 05:58:19;;;;;;;5.97;5.30;;;15.50;99.90;;;;;;5056799;28;20470;-59
2022/07/07 06:00:47;;;;;;;7.77;6.20;;;15.50;99.90;;;;;;5055703;28;20440;-59
2022/07/07 06:03:14;;;;;;;6.60;6.00;;;15.60;99.90;;;;;;5055445;28;20522;-60
2022/07/07 06:05:41;;;;;;;7.07;6.47;;;15.60;99.90;;;;;;5055306;28;20484;-59
2022/07/07 06:08:09;;;;;;;7.83;7.00;;;15.60;99.90;;;;;;5054795;28;20547;-60
2022/07/07 06:10:38;;;;;;;6.23;5.73;;;15.70;99.90;;;;;;5058455;28;20444;-59
2022/07/07 06:13:06;;;;;;;8.53;7.77;;;15.70;99.90;;;;;;5059983;28;20505;-61
2022/07/07 06:15:35;;;;;;;8.13;7.33;;;15.70;99.90;;;;;;5062334;28;20440;-59
2022/07/07 06:18:02;;;;;;;8.50;7.80;;;15.70;99.90;;;;;;5054816;28;20440;-62
2022/07/07 06:20:30;;;;;;;8.30;7.70;;;15.80;99.90;;;;;;5056761;28;20806;-60
2022/07/07 06:22:57;;;;;;;9.60;8.70;;;15.80;99.90;;;;;;5074278;28;20463;-60
2022/07/07 06:25:26;;;;;;;8.70;8.00;;;15.90;99.90;;;;;;5074187;28;20447;-60
2022/07/07 06:27:54;;;;;;;9.37;8.67;;;15.90;99.90;;;;;;5074259;28;20443;-61
2022/07/07 06:30:22;;;;;;;9.27;8.47;;;16.00;99.90;;;;;;5074824;28;20818;-62
2022/07/07 06:32:49;;;;;;;9.40;8.50;;;16.00;99.90;;;;;;5063164;28;20472;-60
2022/07/07 06:35:19;;;;;;;8.37;7.50;;;16.20;99.90;;;;;;5054344;28;21003;-61
2022/07/07 06:37:47;;;;;;;7.97;7.37;;;16.30;99.90;;;;;;5054327;28;20535;-59
2022/07/07 06:40:14;;;;;;;8.43;7.70;;;16.40;99.90;;;;;;5071013;28;20868;-62
2022/07/07 06:42:42;;;;;;;7.17;6.37;;;16.60;99.90;;;;;;5073663;28;20470;-60
2022/07/07 06:45:11;;;;;;;7.00;6.40;;;16.70;99.90;;;;;;5059547;28;20451;-61
2022/07/07 06:47:39;;;;;;;6.87;6.30;;;16.70;99.90;;;;;;5054370;28;20451;-61
2022/07/07 06:50:07;;;;;;;5.20;4.80;;;16.60;99.90;;;;;;5054434;28;20488;-59
2022/07/07 06:52:34;;;;;;;6.83;6.23;;;16.60;99.90;;;;;;5054574;28;20525;-60
2022/07/07 06:55:02;;;;;;;8.57;5.20;;;16.60;99.90;;;;;;5054410;28;20448;-60
2022/07/07 06:57:29;;;;;;;4.90;4.50;;;16.70;99.90;;;;;;5057130;28;20920;-59
2022/07/07 06:59:57;;;;;;;5.03;4.63;;;16.70;99.90;;;;;;5071203;28;20498;-58
2022/07/07 07:02:25;;;;;;;5.07;4.67;;;16.70;99.90;;;;;;5056054;28;20521;-60
2022/07/07 07:04:52;;;;;;;5.40;4.90;;;16.70;99.90;;;;;;5061272;28;20479;-60
2022/07/07 07:07:20;;;;;;;4.30;3.90;;;16.70;99.90;;;;;;5064779;28;20860;-60
2022/07/07 07:09:47;;;;;;;4.37;3.97;;;16.80;99.90;;;;;;5058156;28;20488;-59
2022/07/07 07:12:14;;;;;;;4.80;3.73;;;16.90;99.90;;;;;;5067508;28;20524;-59
2022/07/07 07:14:42;;;;;;;4.40;3.97;;;17.00;99.90;;;;;;5058799;28;20448;-59
2022/07/07 07:17:09;;;;;;;3.90;3.60;;;17.20;99.90;;;;;;5054204;28;20497;-60
2022/07/07 07:19:38;;;;;;;4.30;4.00;;;17.20;99.90;;;;;;5054238;28;20566;-59
2022/07/07 07:22:05;;;;;;;3.60;3.27;;;17.10;99.90;;;;;;5054246;28;20444;-59
2022/07/07 07:24:33;;;;;;;5.90;3.77;;;17.00;99.90;;;;;;5054269;28;20472;-59
2022/07/07 07:27:01;;;;;;;4.80;4.03;;;16.90;99.90;;;;;;5060313;28;20534;-59
2022/07/07 07:29:28;;;;;;;5.03;3.60;;;16.90;99.90;;;;;;5081070;28;20475;-59
2022/07/07 07:31:55;;;;;;;4.10;3.70;;;16.90;99.90;;;;;;5083618;28;20545;-60
2022/07/07 07:34:23;;;;;;;5.20;4.70;;;17.00;99.90;;;;;;5084283;28;20528;-58
2022/07/07 07:36:52;;;;;;;4.53;4.17;;;16.90;99.90;;;;;;5085027;28;20521;-60
2022/07/07 07:39:20;;;;;;;4.30;3.90;;;16.90;99.90;;;;;;5075128;28;20459;-60
2022/07/07 07:41:47;;;;;;;4.47;4.07;;;16.90;99.90;;;;;;5064636;28;20629;-61
2022/07/07 07:45:09;;;;;;;4.90;4.50;;;16.90;99.90;;;;;;5059584;28;20471;-60
2022/07/07 07:47:02;;;;;;;4.30;4.00;;;17.00;99.90;;;;;;5053736;28;20781;-59
2022/07/07 07:49:30;;;;;;;4.60;4.20;;;17.20;99.90;;;;;;5053189;28;20483;-59
2022/07/07 07:51:58;;;;;;;4.10;3.70;;;17.30;99.90;;;;;;5053375;28;20456;-59
2022/07/07 07:54:26;;;;;;;3.93;3.63;;;17.50;99.90;;;;;;5053382;28;20517;-59
2022/07/07 07:56:53;;;;;;;4.47;4.10;;;17.40;99.90;;;;;;5053663;28;20986;-59
2022/07/07 07:59:20;;;;;;;4.50;3.27;;;17.40;99.90;;;;;;5053308;28;20436;-59
2022/07/07 08:01:48;;;;;;;4.03;3.30;;;17.50;99.90;;;;;;5053620;28;20447;-60
2022/07/07 08:04:15;;;;;;;3.30;3.00;;;17.60;99.90;;;;;;5053456;28;20545;-60
2022/07/07 08:06:42;;;;;;;3.20;3.00;;;17.70;99.90;;;;;;5053286;28;20463;-59
2022/07/07 08:09:11;;;;;;;2.40;2.20;;;17.80;99.90;;;;;;5053068;28;20483;-60
2022/07/07 08:11:38;;;;;;;3.27;2.50;;;17.90;99.90;;;;;;5053505;28;20514;-60
2022/07/07 08:14:06;;;;;;;3.10;2.77;;;18.10;99.90;;;;;;5057367;28;20470;-60
2022/07/07 08:16:35;;;;;;;2.53;2.33;;;18.20;99.90;;;;;;5073250;28;20447;-60
2022/07/07 08:19:02;;;;;;;2.70;2.47;;;18.30;99.90;;;;;;5069339;28;20451;-60
2022/07/07 08:21:29;;;;;;;3.47;2.40;;;18.40;99.90;;;;;;5073763;28;20453;-60
2022/07/07 08:23:57;;;;;;;3.70;2.63;;;18.20;99.90;;;;;;5074613;28;20493;-59
2022/07/07 08:26:25;;;;;;;3.70;2.83;;;17.90;99.90;;;;;;5075062;28;20809;-60
2022/07/07 08:28:53;;;;;;;4.80;3.30;;;17.60;99.90;;;;;;5074689;28;20478;-60
2022/07/07 08:31:20;;;;;;;4.70;3.50;;;17.50;99.90;;;;;;5073889;28;20451;-59
2022/07/07 08:33:48;;;;;;;4.17;3.77;;;17.40;99.90;;;;;;5073331;28;20521;-60
2022/07/07 08:36:15;;;;;;;3.30;2.90;;;17.30;99.90;;;;;;5073199;28;20450;-60
2022/07/07 08:38:42;;;;;;;4.50;2.47;;;17.30;99.90;;;;;;5073834;28;20526;-60
2022/07/07 08:41:10;;;;;;;2.93;2.63;;;17.50;99.90;;;;;;5073700;28;20493;-60
2022/07/07 08:43:39;;;;;;;2.50;1.83;;;17.60;99.90;;;;;;5073641;28;20951;-59
2022/07/07 08:46:06;;;;;;;2.23;1.77;;;17.80;99.90;;;;;;5073511;28;20451;-59
2022/07/07 08:48:34;;;;;;;2.53;1.27;;;17.80;99.90;;;;;;5074068;28;20510;-60
2022/07/07 08:51:02;;;;;;;1.37;1.20;;;17.80;99.90;;;;;;5073647;28;20536;-60
2022/07/07 08:53:33;;;;;;;1.20;1.10;;;17.80;99.90;;;;;;5073958;28;20974;-60
2022/07/07 08:56:04;;;;;;;2.40;1.30;;;17.90;99.90;;;;;;5079049;28;20844;-60
2022/07/07 08:58:31;;;;;;;1.00;0.90;;;18.20;99.90;;;;;;5080060;28;20424;-61
2022/07/07 09:01:00;;;;;;;2.50;0.90;;;18.30;99.90;;;;;;5079631;28;20482;-59
2022/07/07 09:03:28;;;;;;;1.10;1.00;;;18.40;99.90;;;;;;5077572;28;20459;-59
2022/07/07 09:05:56;;;;;;;1.90;1.60;;;18.20;99.90;;;;;;5076910;28;20855;-59
2022/07/07 09:08:24;;;;;;;2.67;1.90;;;18.00;99.90;;;;;;5076128;28;20505;-60
2022/07/07 09:10:53;;;;;;;2.10;1.87;;;17.80;99.90;;;;;;5075985;28;20839;-61
2022/07/07 09:13:25;;;;;;;2.30;1.80;;;17.80;99.90;;;;;;5076086;28;20470;-60
2022/07/07 09:15:53;;;;;;;1.80;1.70;;;17.70;99.90;;;;;;5076297;28;20462;-61
2022/07/07 09:18:36;;;;;;;3.60;2.53;;;17.50;99.90;;;;;;5076655;28;20877;-60
2022/07/07 09:21:06;;;;;;;2.60;2.40;;;17.30;99.90;;;;;;5076789;28;20492;-60
2022/07/07 09:23:34;;;;;;;2.63;2.20;;;17.10;99.90;;;;;;5076133;28;20553;-60
2022/07/07 09:26:02;;;;;;;2.63;2.43;;;17.00;99.90;;;;;;5076770;28;20447;-59
2022/07/07 09:28:29;;;;;;;2.70;2.50;;;16.90;99.90;;;;;;5076066;28;20587;-60
2022/07/07 09:30:57;;;;;;;2.73;2.53;;;16.80;99.90;;;;;;5076013;28;20481;-60
2022/07/07 09:33:26;;;;;;;3.67;2.73;;;16.90;99.90;;;;;;5077103;28;20471;-60
2022/07/07 09:38:41;;;;;;;3.20;2.47;;;17.20;99.90;;;;;;5077658;28;20414;-60
2022/07/07 09:41:10;;;;;;;1.90;1.80;;;17.40;99.90;;;;;;5076577;28;20504;-60
2022/07/07 09:43:39;;;;;;;3.87;2.17;;;17.50;99.90;;;;;;5075521;28;20474;-59
2022/07/07 09:46:12;;;;;;;2.80;2.60;;;17.70;99.90;;;;;;5075340;28;20503;-61
2022/07/07 09:48:42;;;;;;;2.63;2.43;;;17.70;99.90;;;;;;5075903;28;20501;-60
2022/07/07 09:51:16;;;;;;;3.40;3.10;;;17.60;99.90;;;;;;5075267;28;20494;-60
2022/07/07 09:54:01;;;;;;;4.60;4.20;;;17.50;99.90;;;;;;5074916;28;20861;-59
2022/07/07 09:59:14;;;;;;;3.23;2.93;;;17.30;99.90;;;;;;5033872;28;20461;-65
2022/07/07 10:01:43;;;;;;;3.10;2.40;;;17.30;99.90;;;;;;5034616;28;20951;-65
2022/07/07 10:04:13;;;;;;;2.33;2.17;;;17.20;99.90;;;;;;5035029;28;20464;-65
2022/07/07 10:06:43;;;;;;;2.20;1.63;;;17.20;99.90;;;;;;5034627;28;21052;-64
2022/07/07 10:09:11;;;;;;;4.03;2.30;;;17.20;99.90;;;;;;5034767;28;20484;-64
2022/07/07 10:11:40;;;;;;;2.20;1.63;;;17.10;99.90;;;;;;5034697;28;20496;-62
2022/07/07 10:14:16;;;;;;;1.80;1.60;;;16.90;99.90;;;;;;5034836;28;20448;-63
2022/07/07 10:16:44;;;;;;;3.47;1.90;;;16.80;99.90;;;;;;5034598;28;20909;-64
2022/07/07 10:19:14;;;;;;;2.00;1.80;;;16.80;99.90;;;;;;5035094;28;20510;-65
2022/07/07 10:21:45;;;;;;;2.47;2.27;;;16.80;99.90;;;;;;5034672;28;21006;-64
2022/07/07 10:24:13;;;;;;;2.47;2.27;;;16.90;99.90;;;;;;5035216;28;20460;-64
2022/07/07 10:26:42;;;;;;;2.40;2.20;;;17.00;99.90;;;;;;5037890;28;20449;-64
2022/07/07 10:29:10;;;;;;;2.20;2.00;;;17.10;99.90;;;;;;5035834;28;20441;-66
2022/07/07 10:31:39;;;;;;;6.20;2.53;;;17.00;99.90;;;;;;5034751;28;20477;-63
2022/07/07 10:34:08;;;;;;;2.20;1.73;;;16.90;99.90;;;;;;5034635;28;20499;-64
2022/07/07 10:37:02;;;;;;;1.80;1.70;;;16.80;99.90;;;;;;5035078;28;20455;-65
2022/07/07 10:39:33;;;;;;;1.80;1.70;;;16.80;99.90;;;;;;5030285;28;20445;-64
2022/07/07 10:42:06;;;;;;;1.90;1.80;;;16.70;99.90;;;;;;5034629;28;20429;-64
2022/07/07 10:44:36;;;;;;;4.43;2.10;;;16.60;99.90;;;;;;5034922;28;20910;-62
2022/07/07 10:47:06;;;;;;;2.60;2.40;;;16.60;99.90;;;;;;5034782;28;20464;-63
2022/07/07 10:49:41;;;;;;;1.97;1.77;;;16.50;99.90;;;;;;5035489;28;20437;-63
2022/07/07 10:52:14;;;;;;;3.00;2.67;;;16.50;99.90;;;;;;5034641;28;20436;-64
2022/07/07 10:54:43;;;;;;;2.90;1.97;;;16.50;99.90;;;;;;5034635;28;20483;-64
2022/07/07 10:57:12;;;;;;;2.30;2.10;;;16.70;99.90;;;;;;5035129;28;20567;-64
2022/07/07 11:00:10;;;;;;;3.53;2.87;;;16.90;99.90;;;;;;5034852;28;20511;-63
2022/07/07 11:02:39;;;;;;;3.77;3.27;;;17.20;99.90;;;;;;5037462;28;20913;-63
2022/07/07 11:05:26;;;;;;;4.03;2.90;;;17.30;99.90;;;;;;5036967;28;20933;-65
2022/07/07 11:08:13;;;;;;;2.27;2.07;;;17.30;99.90;;;;;;5034969;28;20962;-65
2022/07/07 11:10:50;;;;;;;3.13;2.47;;;17.30;99.90;;;;;;5034654;28;20499;-64
2022/07/07 11:13:21;;;;;;;4.10;2.60;;;17.10;99.90;;;;;;5034540;28;20433;-64
2022/07/07 11:15:49;;;;;;;3.10;2.80;;;17.10;99.90;;;;;;5034347;28;20441;-67
2022/07/07 11:18:18;;;;;;;2.90;2.50;;;17.10;99.90;;;;;;5034124;28;20992;-66
2022/07/07 11:21:05;;;;;;;4.27;2.60;;;17.20;99.90;;;;;;5034464;28;20571;-64
2022/07/07 11:23:47;;;;;;;5.47;3.10;;;17.30;99.90;;;;;;5034746;28;20429;-65
2022/07/07 11:26:17;;;;;;;6.33;3.27;;;17.60;99.90;;;;;;5035092;28;20432;-66
2022/07/07 11:28:44;;;;;;;4.57;2.80;;;17.80;99.90;;;;;;5034384;28;20467;-65
2022/07/07 11:31:12;;;;;;;4.80;3.03;;;18.10;99.90;;;;;;5034538;28;20477;-65
2022/07/07 11:33:40;;;;;;;6.27;3.27;;;18.20;99.90;;;;;;5033867;28;21004;-62
2022/07/07 11:36:12;;;;;;;5.80;3.40;;;18.20;99.90;;;;;;5034193;28;20467;-65
2022/07/07 11:38:40;;;;;;;6.30;3.47;;;18.20;99.90;;;;;;5033504;28;20972;-66
2022/07/07 11:41:09;;;;;;;5.03;2.60;;;18.30;99.90;;;;;;5033955;28;20495;-64
2022/07/07 11:43:37;;;;;;;3.53;2.53;;;18.50;99.90;;;;;;5033573;28;20799;-66
2022/07/07 11:46:05;;;;;;;4.40;2.90;;;18.50;99.90;;;;;;5033075;28;20449;-63
2022/07/07 11:48:37;;;;;;;2.97;2.57;;;18.40;99.90;;;;;;5033229;28;20519;-66
2022/07/07 11:51:05;;;;;;;3.70;2.50;;;18.40;99.90;;;;;;5033314;28;20894;-66
2022/07/07 11:53:33;;;;;;;5.27;2.90;;;18.40;99.90;;;;;;5033354;28;20481;-65
2022/07/07 11:56:01;;;;;;;3.33;2.60;;;18.60;99.90;;;;;;5032992;28;20445;-66
2022/07/07 11:58:30;;;;;;;5.37;2.50;;;18.80;99.90;;;;;;5032375;28;20542;-66
2022/07/07 12:00:58;;;;;;;3.00;2.50;;;18.90;99.90;;;;;;5032952;28;20453;-67
2022/07/07 12:03:36;;;;;;;7.47;3.37;;;18.80;99.90;;;;;;5032772;28;20449;-63
2022/07/07 12:06:04;;;;;;;4.83;2.80;;;18.50;99.90;;;;;;5032678;28;20465;-67
2022/07/07 12:08:37;;;;;;;5.43;3.20;;;17.90;99.90;;;;;;5032827;28;20471;-63
2022/07/07 12:11:06;;;;;;;9.60;4.40;;;17.20;99.90;;;;;;5033132;28;20535;-65
2022/07/07 12:13:34;;;;;;;4.60;3.50;;;16.80;99.90;;;;;;5033198;28;20449;-61
2022/07/07 12:16:04;;;;;;;5.73;4.43;;;16.50;99.90;;;;;;5032827;28;20535;-63
2022/07/07 12:18:40;;;;;;;7.83;4.63;;;16.40;99.90;;;;;;5032801;28;20469;-63
2022/07/07 12:21:09;;;;;;;6.07;4.37;;;16.40;99.90;;;;;;5032637;28;20432;-62
2022/07/07 12:23:38;;;;;;;7.73;3.53;;;16.40;99.90;;;;;;5032960;28;20540;-64
2022/07/07 12:26:11;;;;;;;5.83;4.07;;;16.60;99.90;;;;;;5032724;28;20456;-63
2022/07/07 12:28:42;;;;;;;5.23;3.70;;;16.80;99.90;;;;;;5032843;28;20465;-64
2022/07/07 12:31:16;;;;;;;14.13;3.70;;;17.00;99.90;;;;;;5035926;28;21007;-63
2022/07/07 12:33:43;;;;;;;4.90;3.17;;;17.30;99.90;;;;;;5036729;28;20457;-64
2022/07/07 12:36:13;;;;;;;4.97;3.00;;;17.60;99.90;;;;;;5037175;28;20483;-65
2022/07/07 12:38:42;;;;;;;4.97;2.80;;;18.00;99.90;;;;;;5036752;28;20469;-63
2022/07/07 12:41:20;;;;;;;7.10;3.30;;;18.30;99.90;;;;;;5036303;28;20449;-64
2022/07/07 12:43:49;;;;;;;5.67;2.97;;;18.70;99.90;;;;;;5036162;28;20425;-65
2022/07/07 12:46:16;;;;;;;6.00;3.00;;;19.30;99.90;;;;;;5037566;28;20995;-64
2022/07/07 12:48:46;;;;;;;6.27;2.70;;;19.60;99.90;;;;;;5037580;28;20515;-66
2022/07/07 12:51:13;;;;;;;4.13;3.00;;;19.80;99.90;;;;;;5037387;28;20825;-65
2022/07/07 12:53:42;;;;;;;5.00;2.30;;;19.80;99.90;;;;;;5037735;28;20475;-65
2022/07/07 12:56:12;;;;;;;3.40;2.70;;;19.70;99.90;;;;;;5037272;28;20448;-64
2022/07/07 12:58:52;;;;;;;4.63;2.43;;;19.40;99.90;;;;;;5037310;28;20538;-65
2022/07/07 13:01:22;;;;;;;4.07;2.47;;;19.20;99.90;;;;;;5039163;28;20448;-64